sensor_id;sensor_type;location;lat;lon;timestamp;temperature;humidity
23385;DHT22;11865;45.394;10.978;2023-05-29T00:00:30;17.80;99.90
23385;DHT22;11865;45.394;10.978;2023-05-29T00:02:58;17.60;99.90
23385;DHT22;11865;45.394;10.978;2023-05-29T00:05:26;17.50;99.90
23385;DHT22;11865;45.394;10.978;2023-05-29T00:07:54;17.40;99.90
23385;DHT22;11865;45.394;10.978;2023-05-29T00:10:21;17.40;99.90
23385;DHT22;11865;45.394;10.978;2023-05-29T00:12:48;17.30;99.90
23385;DHT22;11865;45.394;10.978;2023-05-29T00:15:16;17.30;99.90
23385;DHT22;11865;45.394;10.978;2023-05-29T00:17:44;17.40;99.90
23385;DHT22;11865;45.394;10.978;2023-05-29T00:20:11;17.40;99.90
23385;DHT22;11865;45.394;10.978;2023-05-29T00:22:39;17.50;99.90
23385;DHT22;11865;45.394;10.978;2023-05-29T00:25:08;17.40;99.90
23385;DHT22;11865;45.394;10.978;2023-05-29T00:27:36;17.40;99.90
23385;DHT22;11865;45.394;10.978;2023-05-29T00:30:04;17.30;99.90
23385;DHT22;11865;45.394;10.978;2023-05-29T00:32:31;17.20;99.90
23385;DHT22;11865;45.394;10.978;2023-05-29T00:35:00;17.20;99.90
23385;DHT22;11865;45.394;10.978;2023-05-29T00:37:27;17.30;99.90
23385;DHT22;11865;45.394;10.978;2023-05-29T00:39:55;17.30;99.90
23385;DHT22;11865;45.394;10.978;2023-05-29T00:42:22;17.30;99.90
23385;DHT22;11865;45.394;10.978;2023-05-29T00:44:50;17.20;99.90
23385;DHT22;11865;45.394;10.978;2023-05-29T00:47:18;17.30;99.90
23385;DHT22;11865;45.394;10.978;2023-05-29T00:49:45;17.30;99.90
23385;DHT22;11865;45.394;10.978;2023-05-29T00:52:13;17.40;99.90
23385;DHT22;11865;45.394;10.978;2023-05-29T00:54:43;17.40;99.90
23385;DHT22;11865;45.394;10.978;2023-05-29T00:57:13;17.40;99.90
23385;DHT22;11865;45.394;10.978;2023-05-29T00:59:41;17.30;99.90
23385;DHT22;11865;45.394;10.978;2023-05-29T01:02:09;17.30;99.90
23385;DHT22;11865;45.394;10.978;2023-05-29T01:04:38;17.30;99.90
23385;DHT22;11865;45.394;10.978;2023-05-29T01:07:06;17.30;99.90
23385;DHT22;11865;45.394;10.978;2023-05-29T01:09:34;17.40;99.90
23385;DHT22;11865;45.394;10.978;2023-05-29T01:12:22;17.50;99.90
23385;DHT22;11865;45.394;10.978;2023-05-29T01:21:24;17.50;99.90
23385;DHT22;11865;45.394;10.978;2023-05-29T01:29:10;17.50;99.90
23385;DHT22;11865;45.394;10.978;2023-05-29T01:31:40;17.50;99.90
23385;DHT22;11865;45.394;10.978;2023-05-29T01:34:09;17.50;99.90
23385;DHT22;11865;45.394;10.978;2023-05-29T01:36:36;17.40;99.90
23385;DHT22;11865;45.394;10.978;2023-05-29T01:39:04;17.40;99.90
23385;DHT22;11865;45.394;10.978;2023-05-29T01:41:33;17.40;99.90
23385;DHT22;11865;45.394;10.978;2023-05-29T01:44:03;17.50;99.90
23385;DHT22;11865;45.394;10.978;2023-05-29T01:46:32;17.40;99.90
23385;DHT22;11865;45.394;10.978;2023-05-29T01:49:00;17.40;99.90
23385;DHT22;11865;45.394;10.978;2023-05-29T01:51:27;17.50;99.90
23385;DHT22;11865;45.394;10.978;2023-05-29T01:53:55;17.50;99.90
23385;DHT22;11865;45.394;10.978;2023-05-29T01:56:23;17.50;99.90
23385;DHT22;11865;45.394;10.978;2023-05-29T01:58:51;17.40;99.90
23385;DHT22;11865;45.394;10.978;2023-05-29T02:01:20;17.30;99.90
23385;DHT22;11865;45.394;10.978;2023-05-29T02:03:48;17.30;99.90
23385;DHT22;11865;45.394;10.978;2023-05-29T02:06:16;17.30;99.90
23385;DHT22;11865;45.394;10.978;2023-05-29T02:08:44;17.30;99.90
23385;DHT22;11865;45.394;10.978;2023-05-29T02:11:12;17.40;99.90
23385;DHT22;11865;45.394;10.978;2023-05-29T02:13:40;17.50;99.90
23385;DHT22;11865;45.394;10.978;2023-05-29T02:16:07;17.50;99.90
23385;DHT22;11865;45.394;10.978;2023-05-29T02:18:35;17.60;99.90
23385;DHT22;11865;45.394;10.978;2023-05-29T02:21:02;17.70;99.90
23385;DHT22;11865;45.394;10.978;2023-05-29T02:23:30;17.70;99.90
23385;DHT22;11865;45.394;10.978;2023-05-29T02:25:57;17.70;99.90
23385;DHT22;11865;45.394;10.978;2023-05-29T02:28:25;17.80;99.90
23385;DHT22;11865;45.394;10.978;2023-05-29T02:30:52;17.90;99.90
23385;DHT22;11865;45.394;10.978;2023-05-29T02:33:20;18.10;99.90
23385;DHT22;11865;45.394;10.978;2023-05-29T02:35:48;18.20;99.90
23385;DHT22;11865;45.394;10.978;2023-05-29T02:38:15;18.20;99.90
23385;DHT22;11865;45.394;10.978;2023-05-29T02:40:43;18.50;99.90
23385;DHT22;11865;45.394;10.978;2023-05-29T02:43:12;18.70;99.90
23385;DHT22;11865;45.394;10.978;2023-05-29T02:45:40;19.00;99.90
23385;DHT22;11865;45.394;10.978;2023-05-29T02:48:08;19.00;99.90
23385;DHT22;11865;45.394;10.978;2023-05-29T02:50:37;19.00;99.90
23385;DHT22;11865;45.394;10.978;2023-05-29T02:53:04;19.00;99.90
23385;DHT22;11865;45.394;10.978;2023-05-29T02:55:31;18.90;99.90
23385;DHT22;11865;45.394;10.978;2023-05-29T02:58:03;18.90;99.90
23385;DHT22;11865;45.394;10.978;2023-05-29T03:00:30;18.80;99.90
23385;DHT22;11865;45.394;10.978;2023-05-29T03:02:58;18.90;99.90
23385;DHT22;11865;45.394;10.978;2023-05-29T03:05:25;19.00;99.90
23385;DHT22;11865;45.394;10.978;2023-05-29T03:07:53;18.80;99.90
23385;DHT22;11865;45.394;10.978;2023-05-29T03:10:21;18.80;99.90
23385;DHT22;11865;45.394;10.978;2023-05-29T03:12:49;18.70;99.90
23385;DHT22;11865;45.394;10.978;2023-05-29T03:15:16;18.60;99.90
23385;DHT22;11865;45.394;10.978;2023-05-29T03:17:47;18.60;99.90
23385;DHT22;11865;45.394;10.978;2023-05-29T03:20:18;18.30;99.90
23385;DHT22;11865;45.394;10.978;2023-05-29T03:22:46;18.00;99.90
23385;DHT22;11865;45.394;10.978;2023-05-29T03:25:14;17.90;99.90
23385;DHT22;11865;45.394;10.978;2023-05-29T03:27:43;17.50;99.90
23385;DHT22;11865;45.394;10.978;2023-05-29T03:30:15;17.40;99.90
23385;DHT22;11865;45.394;10.978;2023-05-29T03:32:43;17.40;99.90
23385;DHT22;11865;45.394;10.978;2023-05-29T03:35:11;17.30;99.90
23385;DHT22;11865;45.394;10.978;2023-05-29T03:37:41;17.20;99.90
23385;DHT22;11865;45.394;10.978;2023-05-29T03:40:09;16.90;99.90
23385;DHT22;11865;45.394;10.978;2023-05-29T03:42:36;16.90;99.90
23385;DHT22;11865;45.394;10.978;2023-05-29T03:45:04;16.90;99.90
23385;DHT22;11865;45.394;10.978;2023-05-29T03:47:34;16.80;99.90
23385;DHT22;11865;45.394;10.978;2023-05-29T03:50:02;17.00;99.90
23385;DHT22;11865;45.394;10.978;2023-05-29T03:52:34;17.00;99.90
23385;DHT22;11865;45.394;10.978;2023-05-29T03:55:02;17.10;99.90
23385;DHT22;11865;45.394;10.978;2023-05-29T03:57:30;17.10;99.90
23385;DHT22;11865;45.394;10.978;2023-05-29T03:59:58;17.20;99.90
23385;DHT22;11865;45.394;10.978;2023-05-29T04:02:25;17.30;99.90
23385;DHT22;11865;45.394;10.978;2023-05-29T04:04:53;17.50;99.90
23385;DHT22;11865;45.394;10.978;2023-05-29T04:07:22;17.60;99.90
23385;DHT22;11865;45.394;10.978;2023-05-29T04:09:50;17.80;99.90
23385;DHT22;11865;45.394;10.978;2023-05-29T04:12:17;17.90;99.90
23385;DHT22;11865;45.394;10.978;2023-05-29T04:14:45;18.10;99.90
23385;DHT22;11865;45.394;10.978;2023-05-29T04:17:12;18.30;99.90
23385;DHT22;11865;45.394;10.978;2023-05-29T04:19:42;18.40;99.90
23385;DHT22;11865;45.394;10.978;2023-05-29T04:22:10;18.60;99.90
23385;DHT22;11865;45.394;10.978;2023-05-29T04:24:37;18.70;99.90
23385;DHT22;11865;45.394;10.978;2023-05-29T04:27:05;18.90;99.90
23385;DHT22;11865;45.394;10.978;2023-05-29T04:29:33;19.10;99.90
23385;DHT22;11865;45.394;10.978;2023-05-29T04:32:01;19.10;99.90
23385;DHT22;11865;45.394;10.978;2023-05-29T04:34:30;19.20;99.90
23385;DHT22;11865;45.394;10.978;2023-05-29T04:36:58;19.30;99.90
23385;DHT22;11865;45.394;10.978;2023-05-29T04:39:26;19.20;99.90
23385;DHT22;11865;45.394;10.978;2023-05-29T04:41:54;19.30;99.90
23385;DHT22;11865;45.394;10.978;2023-05-29T04:44:23;19.20;99.90
23385;DHT22;11865;45.394;10.978;2023-05-29T04:46:54;19.20;99.90
23385;DHT22;11865;45.394;10.978;2023-05-29T04:49:24;19.30;99.90
23385;DHT22;11865;45.394;10.978;2023-05-29T04:51:54;19.30;99.90
23385;DHT22;11865;45.394;10.978;2023-05-29T04:54:22;19.20;99.90
23385;DHT22;11865;45.394;10.978;2023-05-29T04:56:53;19.20;99.90
23385;DHT22;11865;45.394;10.978;2023-05-29T04:59:24;19.30;99.90
23385;DHT22;11865;45.394;10.978;2023-05-29T05:01:51;19.40;99.90
23385;DHT22;11865;45.394;10.978;2023-05-29T05:04:19;19.60;99.90
23385;DHT22;11865;45.394;10.978;2023-05-29T05:06:47;19.90;99.90
23385;DHT22;11865;45.394;10.978;2023-05-29T05:09:15;20.40;99.90
23385;DHT22;11865;45.394;10.978;2023-05-29T05:11:42;21.20;99.90
23385;DHT22;11865;45.394;10.978;2023-05-29T05:14:11;21.60;99.90
23385;DHT22;11865;45.394;10.978;2023-05-29T05:16:39;21.90;99.90
23385;DHT22;11865;45.394;10.978;2023-05-29T05:19:07;22.60;99.90
23385;DHT22;11865;45.394;10.978;2023-05-29T05:21:37;23.10;99.60
23385;DHT22;11865;45.394;10.978;2023-05-29T05:24:05;23.20;98.60
23385;DHT22;11865;45.394;10.978;2023-05-29T05:26:32;23.50;96.50
23385;DHT22;11865;45.394;10.978;2023-05-29T05:29:00;23.50;97.00
23385;DHT22;11865;45.394;10.978;2023-05-29T05:31:29;22.80;97.00
23385;DHT22;11865;45.394;10.978;2023-05-29T05:33:58;22.50;98.10
23385;DHT22;11865;45.394;10.978;2023-05-29T05:36:25;22.50;98.50
23385;DHT22;11865;45.394;10.978;2023-05-29T05:38:58;23.80;96.50
23385;DHT22;11865;45.394;10.978;2023-05-29T05:41:26;24.80;94.80
23385;DHT22;11865;45.394;10.978;2023-05-29T05:43:54;25.60;92.90
23385;DHT22;11865;45.394;10.978;2023-05-29T05:46:29;26.70;90.20
23385;DHT22;11865;45.394;10.978;2023-05-29T05:48:57;27.20;88.50
23385;DHT22;11865;45.394;10.978;2023-05-29T05:51:25;27.90;86.60
23385;DHT22;11865;45.394;10.978;2023-05-29T05:53:54;28.10;87.10
23385;DHT22;11865;45.394;10.978;2023-05-29T05:56:21;28.70;82.20
23385;DHT22;11865;45.394;10.978;2023-05-29T05:58:50;28.90;82.10
23385;DHT22;11865;45.394;10.978;2023-05-29T06:01:19;28.80;81.20
23385;DHT22;11865;45.394;10.978;2023-05-29T06:03:48;28.80;81.50
23385;DHT22;11865;45.394;10.978;2023-05-29T06:06:16;28.80;79.60
23385;DHT22;11865;45.394;10.978;2023-05-29T06:11:15;30.20;77.50
23385;DHT22;11865;45.394;10.978;2023-05-29T06:13:45;30.90;70.60
23385;DHT22;11865;45.394;10.978;2023-05-29T06:16:19;30.50;73.40
23385;DHT22;11865;45.394;10.978;2023-05-29T06:21:17;30.80;70.70
23385;DHT22;11865;45.394;10.978;2023-05-29T06:23:54;31.00;71.30
23385;DHT22;11865;45.394;10.978;2023-05-29T06:26:23;31.50;66.50
23385;DHT22;11865;45.394;10.978;2023-05-29T06:28:54;31.50;66.50
23385;DHT22;11865;45.394;10.978;2023-05-29T06:31:21;30.80;71.00
23385;DHT22;11865;45.394;10.978;2023-05-29T06:43:43;30.10;68.40
23385;DHT22;11865;45.394;10.978;2023-05-29T06:46:11;28.90;70.10
23385;DHT22;11865;45.394;10.978;2023-05-29T06:48:38;29.00;71.50
23385;DHT22;11865;45.394;10.978;2023-05-29T06:51:06;29.00;72.10
23385;DHT22;11865;45.394;10.978;2023-05-29T06:53:45;28.00;73.10
23385;DHT22;11865;45.394;10.978;2023-05-29T06:56:13;27.40;75.20
23385;DHT22;11865;45.394;10.978;2023-05-29T06:58:41;28.10;75.60
23385;DHT22;11865;45.394;10.978;2023-05-29T07:01:09;28.50;74.00
23385;DHT22;11865;45.394;10.978;2023-05-29T07:03:43;28.40;74.90
23385;DHT22;11865;45.394;10.978;2023-05-29T07:06:10;28.80;74.30
23385;DHT22;11865;45.394;10.978;2023-05-29T07:08:38;29.30;72.20
23385;DHT22;11865;45.394;10.978;2023-05-29T07:11:06;29.70;71.90
23385;DHT22;11865;45.394;10.978;2023-05-29T07:13:33;30.00;72.90
23385;DHT22;11865;45.394;10.978;2023-05-29T07:16:02;30.70;73.40
23385;DHT22;11865;45.394;10.978;2023-05-29T07:18:45;29.60;67.40
23385;DHT22;11865;45.394;10.978;2023-05-29T07:21:13;29.70;67.10
23385;DHT22;11865;45.394;10.978;2023-05-29T07:23:41;30.50;71.10
23385;DHT22;11865;45.394;10.978;2023-05-29T07:26:09;28.70;67.90
23385;DHT22;11865;45.394;10.978;2023-05-29T07:28:38;27.90;68.70
23385;DHT22;11865;45.394;10.978;2023-05-29T07:31:06;28.40;69.10
23385;DHT22;11865;45.394;10.978;2023-05-29T07:33:34;28.30;72.00
23385;DHT22;11865;45.394;10.978;2023-05-29T07:36:02;27.50;70.60
23385;DHT22;11865;45.394;10.978;2023-05-29T07:38:30;28.20;73.60
23385;DHT22;11865;45.394;10.978;2023-05-29T07:40:57;28.60;70.80
23385;DHT22;11865;45.394;10.978;2023-05-29T07:43:33;29.10;68.90
23385;DHT22;11865;45.394;10.978;2023-05-29T07:46:05;28.10;70.20
23385;DHT22;11865;45.394;10.978;2023-05-29T07:48:34;28.10;70.80
23385;DHT22;11865;45.394;10.978;2023-05-29T07:51:02;27.90;70.60
23385;DHT22;11865;45.394;10.978;2023-05-29T07:53:35;27.10;69.90
23385;DHT22;11865;45.394;10.978;2023-05-29T07:56:03;27.60;72.30
23385;DHT22;11865;45.394;10.978;2023-05-29T07:58:31;27.90;70.50
23385;DHT22;11865;45.394;10.978;2023-05-29T08:01:00;27.80;73.50
23385;DHT22;11865;45.394;10.978;2023-05-29T08:03:27;27.70;72.90
23385;DHT22;11865;45.394;10.978;2023-05-29T08:06:15;27.80;71.30
23385;DHT22;11865;45.394;10.978;2023-05-29T08:08:42;28.20;69.20
23385;DHT22;11865;45.394;10.978;2023-05-29T08:11:11;28.70;73.20
23385;DHT22;11865;45.394;10.978;2023-05-29T08:13:39;27.80;72.50
23385;DHT22;11865;45.394;10.978;2023-05-29T08:16:07;27.20;72.00
23385;DHT22;11865;45.394;10.978;2023-05-29T08:18:35;26.80;73.50
23385;DHT22;11865;45.394;10.978;2023-05-29T08:21:03;27.30;74.90
23385;DHT22;11865;45.394;10.978;2023-05-29T08:23:31;26.50;73.10
23385;DHT22;11865;45.394;10.978;2023-05-29T08:26:02;26.40;73.80
23385;DHT22;11865;45.394;10.978;2023-05-29T08:28:32;27.00;75.90
23385;DHT22;11865;45.394;10.978;2023-05-29T08:31:00;27.20;74.20
23385;DHT22;11865;45.394;10.978;2023-05-29T08:33:27;27.10;75.80
23385;DHT22;11865;45.394;10.978;2023-05-29T08:35:56;26.50;74.20
23385;DHT22;11865;45.394;10.978;2023-05-29T08:38:24;26.00;74.40
23385;DHT22;11865;45.394;10.978;2023-05-29T08:40:54;26.10;75.10
23385;DHT22;11865;45.394;10.978;2023-05-29T08:43:24;26.20;76.20
23385;DHT22;11865;45.394;10.978;2023-05-29T08:45:54;26.10;75.50
23385;DHT22;11865;45.394;10.978;2023-05-29T08:48:27;26.20;76.70
23385;DHT22;11865;45.394;10.978;2023-05-29T08:50:56;26.20;75.50
23385;DHT22;11865;45.394;10.978;2023-05-29T08:53:25;26.40;75.70
23385;DHT22;11865;45.394;10.978;2023-05-29T08:55:53;26.50;75.10
23385;DHT22;11865;45.394;10.978;2023-05-29T08:58:23;26.60;75.40
23385;DHT22;11865;45.394;10.978;2023-05-29T09:00:51;26.60;74.90
23385;DHT22;11865;45.394;10.978;2023-05-29T09:03:19;26.90;77.50
23385;DHT22;11865;45.394;10.978;2023-05-29T09:05:48;27.00;75.30
23385;DHT22;11865;45.394;10.978;2023-05-29T09:08:16;26.40;71.50
23385;DHT22;11865;45.394;10.978;2023-05-29T09:10:45;26.20;71.80
23385;DHT22;11865;45.394;10.978;2023-05-29T09:13:13;26.40;73.10
23385;DHT22;11865;45.394;10.978;2023-05-29T09:15:42;26.30;73.00
23385;DHT22;11865;45.394;10.978;2023-05-29T09:18:31;26.50;74.40
23385;DHT22;11865;45.394;10.978;2023-05-29T09:20:58;26.10;72.00
23385;DHT22;11865;45.394;10.978;2023-05-29T09:23:29;26.40;73.70
23385;DHT22;11865;45.394;10.978;2023-05-29T09:25:57;26.60;72.70
23385;DHT22;11865;45.394;10.978;2023-05-29T09:28:25;26.60;70.30
23385;DHT22;11865;45.394;10.978;2023-05-29T09:30:54;26.50;71.10
23385;DHT22;11865;45.394;10.978;2023-05-29T09:33:22;26.70;74.30
23385;DHT22;11865;45.394;10.978;2023-05-29T09:35:50;26.40;70.30
23385;DHT22;11865;45.394;10.978;2023-05-29T09:38:18;26.70;72.70
23385;DHT22;11865;45.394;10.978;2023-05-29T09:40:49;26.50;69.40
23385;DHT22;11865;45.394;10.978;2023-05-29T09:43:17;26.80;69.90
23385;DHT22;11865;45.394;10.978;2023-05-29T09:45:46;27.00;73.90
23385;DHT22;11865;45.394;10.978;2023-05-29T09:48:33;27.10;69.80
23385;DHT22;11865;45.394;10.978;2023-05-29T09:51:02;27.10;71.30
23385;DHT22;11865;45.394;10.978;2023-05-29T09:53:30;26.60;68.10
23385;DHT22;11865;45.394;10.978;2023-05-29T09:55:58;26.80;72.50
23385;DHT22;11865;45.394;10.978;2023-05-29T09:58:27;26.80;69.80
23385;DHT22;11865;45.394;10.978;2023-05-29T10:00:55;26.60;69.60
23385;DHT22;11865;45.394;10.978;2023-05-29T10:03:25;26.70;67.90
23385;DHT22;11865;45.394;10.978;2023-05-29T10:05:55;26.90;71.50
23385;DHT22;11865;45.394;10.978;2023-05-29T10:08:26;27.00;66.90
23385;DHT22;11865;45.394;10.978;2023-05-29T10:11:02;27.20;70.20
23385;DHT22;11865;45.394;10.978;2023-05-29T10:13:35;26.70;69.60
23385;DHT22;11865;45.394;10.978;2023-05-29T10:16:08;26.80;70.30
23385;DHT22;11865;45.394;10.978;2023-05-29T10:18:58;26.70;69.50
23385;DHT22;11865;45.394;10.978;2023-05-29T10:21:28;26.70;69.60
23385;DHT22;11865;45.394;10.978;2023-05-29T10:23:57;27.20;72.00
23385;DHT22;11865;45.394;10.978;2023-05-29T10:26:25;27.10;71.40
23385;DHT22;11865;45.394;10.978;2023-05-29T10:34:44;27.40;70.30
23385;DHT22;11865;45.394;10.978;2023-05-29T10:37:37;27.20;71.70
23385;DHT22;11865;45.394;10.978;2023-05-29T10:40:08;26.90;72.80
23385;DHT22;11865;45.394;10.978;2023-05-29T10:42:43;27.20;71.10
23385;DHT22;11865;45.394;10.978;2023-05-29T10:50:46;27.20;68.60
23385;DHT22;11865;45.394;10.978;2023-05-29T10:53:22;27.10;68.20
23385;DHT22;11865;45.394;10.978;2023-05-29T10:55:51;27.10;69.30
23385;DHT22;11865;45.394;10.978;2023-05-29T10:58:23;27.00;69.10
23385;DHT22;11865;45.394;10.978;2023-05-29T11:00:53;27.60;72.00
23385;DHT22;11865;45.394;10.978;2023-05-29T11:03:31;26.90;69.00
23385;DHT22;11865;45.394;10.978;2023-05-29T11:06:05;27.10;69.10
23385;DHT22;11865;45.394;10.978;2023-05-29T11:08:42;27.20;71.00
23385;DHT22;11865;45.394;10.978;2023-05-29T11:11:29;27.60;71.10
23385;DHT22;11865;45.394;10.978;2023-05-29T11:14:03;27.80;74.40
23385;DHT22;11865;45.394;10.978;2023-05-29T11:19:04;27.80;69.40
23385;DHT22;11865;45.394;10.978;2023-05-29T11:24:07;27.50;70.90
23385;DHT22;11865;45.394;10.978;2023-05-29T11:26:45;27.30;70.60
23385;DHT22;11865;45.394;10.978;2023-05-29T11:29:13;27.20;72.00
23385;DHT22;11865;45.394;10.978;2023-05-29T11:31:42;27.20;71.30
23385;DHT22;11865;45.394;10.978;2023-05-29T11:34:14;27.00;67.90
23385;DHT22;11865;45.394;10.978;2023-05-29T11:36:42;27.10;68.90
23385;DHT22;11865;45.394;10.978;2023-05-29T11:39:10;27.40;67.30
23385;DHT22;11865;45.394;10.978;2023-05-29T11:41:38;27.50;69.40
23385;DHT22;11865;45.394;10.978;2023-05-29T11:44:06;27.70;68.20
23385;DHT22;11865;45.394;10.978;2023-05-29T11:46:33;27.80;69.40
23385;DHT22;11865;45.394;10.978;2023-05-29T11:49:01;27.90;68.30
23385;DHT22;11865;45.394;10.978;2023-05-29T11:51:29;28.30;71.30
23385;DHT22;11865;45.394;10.978;2023-05-29T11:53:58;28.10;70.20
23385;DHT22;11865;45.394;10.978;2023-05-29T11:56:27;27.70;69.80
23385;DHT22;11865;45.394;10.978;2023-05-29T11:58:55;27.90;70.70
23385;DHT22;11865;45.394;10.978;2023-05-29T12:01:25;27.90;66.90
23385;DHT22;11865;45.394;10.978;2023-05-29T12:03:52;28.10;70.80
23385;DHT22;11865;45.394;10.978;2023-05-29T12:06:33;28.20;69.80
23385;DHT22;11865;45.394;10.978;2023-05-29T12:09:05;28.30;68.90
23385;DHT22;11865;45.394;10.978;2023-05-29T12:11:34;28.80;74.60
23385;DHT22;11865;45.394;10.978;2023-05-29T12:14:02;28.80;70.60
23385;DHT22;11865;45.394;10.978;2023-05-29T12:16:32;28.60;68.70
23385;DHT22;11865;45.394;10.978;2023-05-29T12:19:01;27.80;66.20
23385;DHT22;11865;45.394;10.978;2023-05-29T12:21:28;27.80;67.80
23385;DHT22;11865;45.394;10.978;2023-05-29T12:23:56;28.30;68.50
23385;DHT22;11865;45.394;10.978;2023-05-29T12:26:41;28.30;64.90
23385;DHT22;11865;45.394;10.978;2023-05-29T12:31:36;27.60;66.60
23385;DHT22;11865;45.394;10.978;2023-05-29T12:34:08;27.50;67.40
23385;DHT22;11865;45.394;10.978;2023-05-29T12:36:40;27.60;70.30
23385;DHT22;11865;45.394;10.978;2023-05-29T12:39:08;27.90;69.60
23385;DHT22;11865;45.394;10.978;2023-05-29T12:41:37;28.10;65.90
23385;DHT22;11865;45.394;10.978;2023-05-29T12:44:06;28.10;66.80
23385;DHT22;11865;45.394;10.978;2023-05-29T12:46:43;28.10;67.90
23385;DHT22;11865;45.394;10.978;2023-05-29T12:49:17;28.50;74.60
23385;DHT22;11865;45.394;10.978;2023-05-29T12:51:48;28.80;72.40
23385;DHT22;11865;45.394;10.978;2023-05-29T12:54:16;28.40;66.90
23385;DHT22;11865;45.394;10.978;2023-05-29T12:56:44;28.10;68.70
23385;DHT22;11865;45.394;10.978;2023-05-29T12:59:13;28.00;69.10
23385;DHT22;11865;45.394;10.978;2023-05-29T13:01:41;28.00;68.40
23385;DHT22;11865;45.394;10.978;2023-05-29T13:04:10;28.60;66.00
23385;DHT22;11865;45.394;10.978;2023-05-29T13:06:40;28.60;65.70
23385;DHT22;11865;45.394;10.978;2023-05-29T13:09:07;28.70;68.40
23385;DHT22;11865;45.394;10.978;2023-05-29T13:11:36;28.30;70.10
23385;DHT22;11865;45.394;10.978;2023-05-29T13:14:05;28.50;66.50
23385;DHT22;11865;45.394;10.978;2023-05-29T13:16:32;28.30;65.80
23385;DHT22;11865;45.394;10.978;2023-05-29T13:19:00;28.40;65.20
23385;DHT22;11865;45.394;10.978;2023-05-29T13:21:27;28.20;67.00
23385;DHT22;11865;45.394;10.978;2023-05-29T13:23:55;28.10;67.20
23385;DHT22;11865;45.394;10.978;2023-05-29T13:26:22;28.10;67.30
23385;DHT22;11865;45.394;10.978;2023-05-29T13:28:50;27.90;67.80
23385;DHT22;11865;45.394;10.978;2023-05-29T13:31:19;27.80;69.00
23385;DHT22;11865;45.394;10.978;2023-05-29T13:33:48;27.70;71.30
23385;DHT22;11865;45.394;10.978;2023-05-29T13:36:16;27.90;70.20
23385;DHT22;11865;45.394;10.978;2023-05-29T13:38:43;27.60;73.60
23385;DHT22;11865;45.394;10.978;2023-05-29T13:41:11;27.60;68.80
23385;DHT22;11865;45.394;10.978;2023-05-29T13:43:39;27.40;68.30
23385;DHT22;11865;45.394;10.978;2023-05-29T13:46:12;27.50;73.20
23385;DHT22;11865;45.394;10.978;2023-05-29T13:48:39;27.40;69.40
23385;DHT22;11865;45.394;10.978;2023-05-29T13:51:07;27.40;68.70
23385;DHT22;11865;45.394;10.978;2023-05-29T13:53:34;27.40;66.50
23385;DHT22;11865;45.394;10.978;2023-05-29T13:56:02;27.60;66.20
23385;DHT22;11865;45.394;10.978;2023-05-29T13:58:29;27.60;67.50
23385;DHT22;11865;45.394;10.978;2023-05-29T14:00:57;28.10;67.80
23385;DHT22;11865;45.394;10.978;2023-05-29T14:03:24;28.30;71.40
23385;DHT22;11865;45.394;10.978;2023-05-29T14:05:56;28.20;72.00
23385;DHT22;11865;45.394;10.978;2023-05-29T14:08:24;28.40;66.60
23385;DHT22;11865;45.394;10.978;2023-05-29T14:10:52;28.40;65.90
23385;DHT22;11865;45.394;10.978;2023-05-29T14:13:19;28.60;67.20
23385;DHT22;11865;45.394;10.978;2023-05-29T14:15:47;28.60;68.50
23385;DHT22;11865;45.394;10.978;2023-05-29T14:18:16;28.80;68.20
23385;DHT22;11865;45.394;10.978;2023-05-29T14:20:44;28.80;65.80
23385;DHT22;11865;45.394;10.978;2023-05-29T14:23:17;28.40;66.20
23385;DHT22;11865;45.394;10.978;2023-05-29T14:25:45;28.40;64.20
23385;DHT22;11865;45.394;10.978;2023-05-29T14:28:12;28.40;71.50
23385;DHT22;11865;45.394;10.978;2023-05-29T14:30:40;28.40;69.40
23385;DHT22;11865;45.394;10.978;2023-05-29T14:33:07;28.20;66.40
23385;DHT22;11865;45.394;10.978;2023-05-29T14:35:35;28.30;67.00
23385;DHT22;11865;45.394;10.978;2023-05-29T14:38:02;28.30;63.50
23385;DHT22;11865;45.394;10.978;2023-05-29T14:40:30;28.30;64.10
23385;DHT22;11865;45.394;10.978;2023-05-29T14:42:58;28.40;65.50
23385;DHT22;11865;45.394;10.978;2023-05-29T14:45:26;28.60;66.20
23385;DHT22;11865;45.394;10.978;2023-05-29T14:47:53;28.20;65.50
23385;DHT22;11865;45.394;10.978;2023-05-29T14:50:21;28.40;63.90
23385;DHT22;11865;45.394;10.978;2023-05-29T14:52:48;28.60;63.00
23385;DHT22;11865;45.394;10.978;2023-05-29T14:55:16;28.30;64.00
23385;DHT22;11865;45.394;10.978;2023-05-29T14:57:44;28.20;63.10
23385;DHT22;11865;45.394;10.978;2023-05-29T15:00:16;28.20;64.30
23385;DHT22;11865;45.394;10.978;2023-05-29T15:02:47;28.20;64.20
23385;DHT22;11865;45.394;10.978;2023-05-29T15:05:15;28.00;70.10
23385;DHT22;11865;45.394;10.978;2023-05-29T15:07:44;28.20;68.90
23385;DHT22;11865;45.394;10.978;2023-05-29T15:10:15;28.50;65.40
23385;DHT22;11865;45.394;10.978;2023-05-29T15:12:47;28.50;70.70
23385;DHT22;11865;45.394;10.978;2023-05-29T15:15:16;28.80;68.60
23385;DHT22;11865;45.394;10.978;2023-05-29T15:17:48;28.50;73.30
23385;DHT22;11865;45.394;10.978;2023-05-29T15:20:19;28.40;72.20
23385;DHT22;11865;45.394;10.978;2023-05-29T15:22:47;28.20;74.50
23385;DHT22;11865;45.394;10.978;2023-05-29T15:25:16;28.30;75.10
23385;DHT22;11865;45.394;10.978;2023-05-29T15:27:44;28.30;72.00
23385;DHT22;11865;45.394;10.978;2023-05-29T15:30:13;28.40;73.60
23385;DHT22;11865;45.394;10.978;2023-05-29T15:32:42;28.60;73.10
23385;DHT22;11865;45.394;10.978;2023-05-29T15:35:15;29.00;73.70
23385;DHT22;11865;45.394;10.978;2023-05-29T15:37:43;28.90;72.90
23385;DHT22;11865;45.394;10.978;2023-05-29T15:40:10;28.90;74.10
23385;DHT22;11865;45.394;10.978;2023-05-29T15:42:38;28.90;72.60
23385;DHT22;11865;45.394;10.978;2023-05-29T15:45:08;29.00;71.10
23385;DHT22;11865;45.394;10.978;2023-05-29T15:47:35;28.80;69.70
23385;DHT22;11865;45.394;10.978;2023-05-29T15:50:03;28.70;70.90
23385;DHT22;11865;45.394;10.978;2023-05-29T15:52:31;28.70;71.00
23385;DHT22;11865;45.394;10.978;2023-05-29T15:55:12;28.70;69.10
23385;DHT22;11865;45.394;10.978;2023-05-29T15:57:40;28.40;69.90
23385;DHT22;11865;45.394;10.978;2023-05-29T16:00:08;28.30;74.50
23385;DHT22;11865;45.394;10.978;2023-05-29T16:02:40;28.40;70.10
23385;DHT22;11865;45.394;10.978;2023-05-29T16:05:08;28.30;70.70
23385;DHT22;11865;45.394;10.978;2023-05-29T16:07:36;28.20;69.40
23385;DHT22;11865;45.394;10.978;2023-05-29T16:10:05;28.20;70.60
23385;DHT22;11865;45.394;10.978;2023-05-29T16:12:33;28.30;74.20